createdAt,value
2018-06-15T00:02:02.741Z,98519.61
2018-06-15T00:04:15.110Z,98518.16
2018-06-15T00:06:27.722Z,98519.32
2018-06-15T00:08:40.091Z,98514.78
2018-06-15T00:10:52.466Z,98511.34
2018-06-15T00:13:04.792Z,98510.03
2018-06-15T00:15:17.320Z,98516.66
2018-06-15T00:17:29.996Z,98515.61
2018-06-15T00:19:42.446Z,98520.36
2018-06-15T00:21:54.846Z,98517.19
2018-06-15T00:24:07.231Z,98515.75
2018-06-15T00:26:19.638Z,98514.59
2018-06-15T00:28:32.068Z,98510.45
2018-06-15T00:30:44.485Z,98509.72
2018-06-15T00:32:56.871Z,98509.01
2018-06-15T00:35:09.295Z,98516.85
2018-06-15T00:37:21.786Z,98510.53
2018-06-15T00:39:34.235Z,98518.02
2018-06-15T00:41:46.662Z,98512.19
2018-06-15T00:43:59.026Z,98512.40
2018-06-15T00:46:11.407Z,98508.55
2018-06-15T00:48:23.810Z,98517.20
2018-06-15T00:50:36.306Z,98517.41
2018-06-15T00:52:48.688Z,98511.70
2018-06-15T00:55:01.126Z,98512.30
2018-06-15T00:57:24.672Z,98509.25
2018-06-15T00:59:37.061Z,98510.14
2018-06-15T01:01:49.663Z,98510.08
2018-06-15T01:04:02.158Z,98506.97
2018-06-15T01:06:14.529Z,98512.25
2018-06-15T01:08:26.933Z,98512.03
2018-06-15T01:10:39.365Z,98505.15
2018-06-15T01:12:51.769Z,98497.67
2018-06-15T01:15:04.425Z,98494.34
2018-06-15T01:17:16.739Z,98497.88
2018-06-15T01:19:29.150Z,98493.72
2018-06-15T01:21:41.545Z,98490.52
2018-06-15T01:23:54.050Z,98487.20
2018-06-15T01:26:06.489Z,98490.25
2018-06-15T01:28:18.878Z,98489.22
2018-06-15T01:30:31.281Z,98492.80
2018-06-15T01:32:43.686Z,98495.12
2018-06-15T01:34:56.361Z,98499.87
2018-06-15T01:37:08.712Z,98500.44
2018-06-15T01:39:21.110Z,98500.14
2018-06-15T01:41:36.716Z,98507.05
2018-06-15T01:43:49.094Z,98505.66
2018-06-15T01:46:02.962Z,98512.03
2018-06-15T01:48:15.313Z,98512.09
2018-06-15T01:50:27.688Z,98505.70
2018-06-15T01:52:40.327Z,98506.50
2018-06-15T01:54:52.619Z,98510.50
2018-06-15T01:57:04.986Z,98510.98
2018-06-15T01:59:17.474Z,98514.89
2018-06-15T02:01:29.911Z,98513.54
2018-06-15T02:03:42.266Z,98516.63
2018-06-15T02:05:54.778Z,98517.52
2018-06-15T02:08:07.214Z,98519.34
2018-06-15T02:10:19.582Z,98518.09
2018-06-15T02:12:31.980Z,98513.84
2018-06-15T02:14:44.454Z,98510.20
2018-06-15T02:16:56.978Z,98510.67
2018-06-15T02:19:09.407Z,98500.80
2018-06-15T02:21:21.829Z,98506.81
2018-06-15T02:23:34.262Z,98508.33
2018-06-15T02:25:46.626Z,98500.23
2018-06-15T02:27:59.094Z,98499.19
2018-06-15T02:30:11.462Z,98500.29
2018-06-15T02:32:23.802Z,98502.90
2018-06-15T02:34:36.174Z,98494.32
2018-06-15T02:36:48.503Z,98499.04
2018-06-15T02:39:01.050Z,98495.27
2018-06-15T02:41:13.409Z,98495.47
2018-06-15T02:43:25.803Z,98492.47
2018-06-15T02:45:38.163Z,98487.98
2018-06-15T02:47:50.489Z,98484.20
2018-06-15T02:50:02.907Z,98486.30
2018-06-15T02:52:15.342Z,98490.61
2018-06-15T02:54:27.655Z,98484.64
2018-06-15T02:56:40.092Z,98486.89
2018-06-15T02:58:52.486Z,98486.70
2018-06-15T03:01:04.949Z,98489.82
2018-06-15T03:03:17.342Z,98491.20
2018-06-15T03:05:29.735Z,98495.18
2018-06-15T03:07:42.086Z,98499.13
2018-06-15T03:09:54.436Z,98504.78
2018-06-15T03:12:06.827Z,98501.96
2018-06-15T03:14:19.195Z,98500.66
2018-06-15T03:16:31.776Z,98506.55
2018-06-15T03:18:44.162Z,98507.27
2018-06-15T03:20:56.814Z,98512.05
2018-06-15T03:23:09.214Z,98513.98
2018-06-15T03:25:21.598Z,98513.86
2018-06-15T03:27:34.034Z,98506.03
2018-06-15T03:29:46.655Z,98509.59
2018-06-15T03:31:59.047Z,98511.66
2018-06-15T03:34:11.373Z,98515.77
2018-06-15T03:36:23.848Z,98515.73
2018-06-15T03:38:36.542Z,98514.20
2018-06-15T03:40:48.965Z,98517.33
2018-06-15T03:43:01.396Z,98516.97
2018-06-15T03:45:13.818Z,98519.66
2018-06-15T03:47:26.176Z,98502.91
2018-06-15T03:49:38.571Z,98502.66
2018-06-15T03:51:50.918Z,98505.36
2018-06-15T03:54:03.942Z,98509.07
2018-06-15T03:56:16.380Z,98513.10
2018-06-15T03:58:28.958Z,98512.43
2018-06-15T04:00:41.383Z,98503.97
2018-06-15T04:02:53.735Z,98507.80
2018-06-15T04:05:06.184Z,98510.09
2018-06-15T04:07:18.589Z,98510.99
2018-06-15T04:09:30.954Z,98515.89
2018-06-15T04:11:43.426Z,98514.11
2018-06-15T04:13:55.814Z,98513.40
2018-06-15T04:16:08.390Z,98510.31
2018-06-15T04:18:20.833Z,98517.00
2018-06-15T04:20:34.158Z,98512.20
2018-06-15T04:22:46.627Z,98513.45
2018-06-15T04:24:59.104Z,98518.41
2018-06-15T04:27:11.570Z,98514.44
2018-06-15T04:29:23.919Z,98513.91
2018-06-15T04:31:36.286Z,98505.03
2018-06-15T04:33:48.647Z,98509.66
2018-06-15T04:36:01.902Z,98505.81
2018-06-15T04:38:14.250Z,98501.06
2018-06-15T04:40:26.750Z,98501.09
2018-06-15T04:42:39.134Z,98497.29
2018-06-15T04:44:51.615Z,98500.37
2018-06-15T04:47:04.385Z,98503.55
2018-06-15T04:49:16.812Z,98506.78
2018-06-15T04:51:29.225Z,98502.45
2018-06-15T04:53:41.655Z,98502.33
2018-06-15T04:55:54.082Z,98508.09
2018-06-15T04:58:06.491Z,98502.14
2018-06-15T05:00:18.897Z,98497.81
2018-06-15T05:02:31.282Z,98501.31
2018-06-15T05:04:43.710Z,98498.75
2018-06-15T05:06:56.186Z,98494.63
2018-06-15T05:09:09.451Z,98496.06
2018-06-15T05:11:21.796Z,98498.73
2018-06-15T05:13:34.130Z,98494.59
2018-06-15T05:15:46.564Z,98499.74
2018-06-15T05:17:59.015Z,98503.70
2018-06-15T05:20:11.613Z,98501.09
2018-06-15T05:22:24.024Z,98504.58
2018-06-15T05:24:36.461Z,98510.45
2018-06-15T05:26:48.975Z,98514.03
2018-06-15T05:29:01.338Z,98516.81
2018-06-15T05:31:13.734Z,98522.23
2018-06-15T05:33:26.710Z,98517.86
2018-06-15T05:35:39.130Z,98518.59
2018-06-15T05:37:51.938Z,98519.91
2018-06-15T05:40:04.520Z,98520.38
2018-06-15T05:42:17.006Z,98518.27
2018-06-15T05:44:29.635Z,98524.81
2018-06-15T05:46:41.955Z,98518.38
2018-06-15T05:48:54.382Z,98517.30
2018-06-15T05:51:06.839Z,98523.39
2018-06-15T05:53:19.566Z,98521.36
2018-06-15T05:55:31.971Z,98520.80
2018-06-15T05:57:44.340Z,98523.30
2018-06-15T05:59:56.728Z,98525.07
2018-06-15T06:02:09.235Z,98527.34
2018-06-15T06:04:21.601Z,98530.19
2018-06-15T06:06:34.038Z,98528.64
2018-06-15T06:08:46.457Z,98529.48
2018-06-15T06:10:58.846Z,98523.28
2018-06-15T06:13:11.309Z,98521.48
2018-06-15T06:15:23.720Z,98523.84
2018-06-15T06:17:36.102Z,98516.08
2018-06-15T06:19:48.589Z,98516.91
2018-06-15T06:22:00.986Z,98513.31
2018-06-15T06:24:13.380Z,98514.23
2018-06-15T06:26:25.890Z,98523.62
2018-06-15T06:28:38.275Z,98521.92
2018-06-15T06:30:50.650Z,98525.22
2018-06-15T06:33:03.122Z,98522.54
2018-06-15T06:35:15.510Z,98527.06
2018-06-15T06:37:27.958Z,98530.05
2018-06-15T06:39:40.361Z,98524.70
2018-06-15T06:41:52.787Z,98535.05
2018-06-15T06:44:05.341Z,98528.45
2018-06-15T06:46:17.718Z,98536.76
2018-06-15T06:48:30.110Z,98538.39
2018-06-15T06:50:42.494Z,98538.70
2018-06-15T06:52:54.857Z,98540.09
2018-06-15T06:55:07.515Z,98540.17
2018-06-15T06:57:19.899Z,98532.94
2018-06-15T06:59:32.370Z,98540.73
2018-06-15T07:01:44.780Z,98538.09
2018-06-15T07:03:57.154Z,98537.86
2018-06-15T07:06:09.611Z,98535.50
2018-06-15T07:08:22.026Z,98544.52
2018-06-15T07:10:34.470Z,98544.57
2018-06-15T07:12:46.886Z,98544.95
2018-06-15T07:14:59.293Z,98543.38
2018-06-15T07:17:11.695Z,98543.30
2018-06-15T07:19:24.317Z,98544.23
2018-06-15T07:21:37.033Z,98541.86
2018-06-15T07:23:49.469Z,98535.38
2018-06-15T07:26:02.285Z,98540.65
2018-06-15T07:28:14.663Z,98543.28
2018-06-15T07:30:27.074Z,98538.47
2018-06-15T07:32:39.424Z,98541.20
2018-06-15T07:34:51.810Z,98549.51
2018-06-15T07:37:04.449Z,98545.14
2018-06-15T07:39:16.780Z,98547.70
2018-06-15T07:41:29.191Z,98549.12
2018-06-15T07:43:41.556Z,98544.47
2018-06-15T07:45:54.016Z,98542.34
2018-06-15T07:48:06.386Z,98542.66
2018-06-15T07:50:18.766Z,98542.11
2018-06-15T07:52:31.228Z,98537.48
2018-06-15T07:54:43.604Z,98542.00
2018-06-15T07:56:56.195Z,98540.82
2018-06-15T07:59:08.610Z,98537.45
2018-06-15T08:01:21.054Z,98534.17
2018-06-15T08:03:33.525Z,98533.66
2018-06-15T08:05:45.910Z,98532.47
2018-06-15T08:07:58.322Z,98534.44
2018-06-15T08:10:10.736Z,98534.42
2018-06-15T08:12:23.109Z,98528.58
2018-06-15T08:14:35.663Z,98535.19
2018-06-15T08:16:48.003Z,98534.98
2018-06-15T08:19:00.663Z,98531.30
2018-06-15T08:21:13.114Z,98529.80
2018-06-15T08:23:25.446Z,98536.50
2018-06-15T08:25:37.986Z,98537.25
2018-06-15T08:27:50.417Z,98532.09
2018-06-15T08:30:02.770Z,98541.23
2018-06-15T08:32:15.182Z,98543.06
2018-06-15T08:34:27.517Z,98539.93
2018-06-15T08:36:39.881Z,98541.61
2018-06-15T08:38:52.302Z,98539.28
2018-06-15T08:41:04.650Z,98539.11
2018-06-15T08:43:17.239Z,98533.79
2018-06-15T08:45:29.726Z,98533.61
2018-06-15T08:47:42.108Z,98534.61
2018-06-15T08:49:54.444Z,98532.97
2018-06-15T08:52:07.019Z,98522.20
2018-06-15T08:54:19.419Z,98526.72
2018-06-15T08:56:31.973Z,98520.47
2018-06-15T08:58:44.427Z,98517.80
2018-06-15T09:00:56.902Z,98519.68
2018-06-15T09:03:09.340Z,98512.88
2018-06-15T09:05:21.744Z,98516.67
2018-06-15T09:07:34.182Z,98515.20
2018-06-15T09:09:46.571Z,98518.01
2018-06-15T09:11:58.956Z,98511.86
2018-06-15T09:14:11.355Z,98512.84
2018-06-15T09:16:23.739Z,98515.48
2018-06-15T09:18:36.150Z,98519.61
2018-06-15T09:20:48.537Z,98515.81
2018-06-15T09:23:00.864Z,98513.81
2018-06-15T09:25:13.354Z,98518.46
2018-06-15T09:27:25.699Z,98517.80
2018-06-15T09:29:38.133Z,98517.53
2018-06-15T09:31:50.478Z,98519.84
2018-06-15T09:34:03.099Z,98514.20
2018-06-15T09:36:15.519Z,98512.70
2018-06-15T09:38:27.906Z,98512.69
2018-06-15T09:40:40.348Z,98514.52
2018-06-15T09:42:52.717Z,98517.16
2018-06-15T09:45:05.154Z,98514.52
2018-06-15T09:47:17.507Z,98515.53
2018-06-15T09:49:30.023Z,98510.19
2018-06-15T09:51:42.403Z,98517.64
2018-06-15T09:53:54.789Z,98516.98
2018-06-15T09:56:07.194Z,98512.52
2018-06-15T09:58:19.546Z,98506.72
2018-06-15T10:00:37.514Z,98508.54
2018-06-15T10:02:50.112Z,98508.58
2018-06-15T10:05:02.509Z,98508.39
2018-06-15T10:07:14.894Z,98510.20
2018-06-15T10:09:27.256Z,98510.52
2018-06-15T10:11:39.749Z,98505.20
2018-06-15T10:13:52.133Z,98506.69
2018-06-15T10:16:04.617Z,98499.02
2018-06-15T10:18:17.001Z,98499.81
2018-06-15T10:20:29.321Z,98501.02
2018-06-15T10:22:41.719Z,98502.61
2018-06-15T10:24:54.274Z,98503.48
2018-06-15T10:27:06.735Z,98503.30
2018-06-15T10:29:19.108Z,98503.41
2018-06-15T10:31:31.526Z,98501.80
2018-06-15T10:33:44.132Z,98508.78
2018-06-15T10:35:56.612Z,98504.45
2018-06-15T10:38:09.415Z,98503.39
2018-06-15T10:40:21.790Z,98495.92
2018-06-15T10:42:34.186Z,98495.69
2018-06-15T10:44:46.538Z,98492.37
2018-06-15T10:46:58.912Z,98494.44
2018-06-15T10:49:11.315Z,98492.45
2018-06-15T10:51:23.713Z,98491.47
2018-06-15T10:53:36.153Z,98486.67
2018-06-15T10:55:48.496Z,98484.48
2018-06-15T10:58:00.913Z,98482.63
2018-06-15T11:00:13.329Z,98486.35
2018-06-15T11:02:25.691Z,98485.61
2018-06-15T11:04:38.254Z,98476.44
2018-06-15T11:06:50.598Z,98485.14
2018-06-15T11:09:03.710Z,98477.92
2018-06-15T11:11:16.196Z,98483.95
2018-06-15T11:13:28.652Z,98473.25
2018-06-15T11:15:41.028Z,98477.80
2018-06-15T11:17:53.380Z,98476.92
2018-06-15T11:20:05.779Z,98474.42
2018-06-15T11:22:18.327Z,98473.17
2018-06-15T11:24:31.001Z,98475.52
2018-06-15T11:26:43.349Z,98477.11
2018-06-15T11:28:55.764Z,98473.20
2018-06-15T11:31:08.210Z,98470.30
2018-06-15T11:33:20.551Z,98465.87
2018-06-15T11:35:32.942Z,98463.34
2018-06-15T11:37:45.368Z,98464.66
2018-06-15T11:39:57.752Z,98462.36
2018-06-15T11:42:10.130Z,98458.66
2018-06-15T11:44:22.603Z,98452.92
2018-06-15T11:46:35.277Z,98449.59
2018-06-15T11:48:47.720Z,98454.88
2018-06-15T11:51:00.069Z,98453.35
2018-06-15T11:53:12.425Z,98454.14
2018-06-15T11:55:24.770Z,98452.14
2018-06-15T11:57:37.246Z,98449.36
2018-06-15T11:59:49.597Z,98451.09
2018-06-15T12:02:01.992Z,98444.24
2018-06-15T12:04:14.338Z,98452.92
2018-06-15T12:06:26.848Z,98451.86
2018-06-15T12:08:39.196Z,98449.13
2018-06-15T12:10:51.602Z,98455.70
2018-06-15T12:13:04.065Z,98453.84
2018-06-15T12:15:16.437Z,98448.42
2018-06-15T12:17:28.825Z,98451.61
2018-06-15T12:19:41.361Z,98445.16
2018-06-15T12:21:53.718Z,98444.98
2018-06-15T12:24:06.142Z,98446.30
2018-06-15T12:26:18.594Z,98449.16
2018-06-15T12:28:30.990Z,98445.05
2018-06-15T12:30:43.426Z,98453.39
2018-06-15T12:32:55.907Z,98441.11
2018-06-15T12:35:08.244Z,98443.99
2018-06-15T12:37:20.587Z,98442.62
2018-06-15T12:39:33.030Z,98442.27
2018-06-15T12:41:45.522Z,98438.27
2018-06-15T12:43:58.164Z,98439.09
2018-06-15T12:46:10.562Z,98449.58
2018-06-15T12:48:23.168Z,98440.13
2018-06-15T12:50:35.565Z,98441.45
2018-06-15T12:52:47.956Z,98443.66
2018-06-15T12:55:00.386Z,98442.05
2018-06-15T12:57:12.794Z,98439.19
2018-06-15T12:59:25.253Z,98445.98
2018-06-15T13:01:37.681Z,98441.81
2018-06-15T13:03:50.059Z,98441.47
2018-06-15T13:06:07.241Z,98449.45
2018-06-15T13:08:20.027Z,98437.39
2018-06-15T13:10:32.506Z,98437.13
2018-06-15T13:12:44.974Z,98438.02
2018-06-15T13:14:57.303Z,98434.39
2018-06-15T13:17:09.639Z,98436.85
2018-06-15T13:19:22.010Z,98434.89
2018-06-15T13:21:34.512Z,98432.63
2018-06-15T13:23:46.888Z,98441.58
2018-06-15T13:25:59.237Z,98434.67
2018-06-15T13:28:11.658Z,98436.53
2018-06-15T13:30:24.015Z,98434.56
2018-06-15T13:32:36.469Z,98437.03
2018-06-15T13:34:48.874Z,98431.70
2018-06-15T13:37:01.267Z,98434.94
2018-06-15T13:39:13.692Z,98432.53
2018-06-15T13:41:28.033Z,98423.90
2018-06-15T13:43:44.464Z,98433.86
2018-06-15T13:45:56.991Z,98428.05
2018-06-15T13:48:09.371Z,98423.67
2018-06-15T13:50:21.842Z,98424.30
2018-06-15T13:52:34.346Z,98424.18
2018-06-15T13:54:46.687Z,98425.94
2018-06-15T13:56:59.095Z,98422.39
2018-06-15T13:59:11.493Z,98417.27
2018-06-15T14:01:24.094Z,98425.05
2018-06-15T14:03:36.535Z,98425.75
2018-06-15T14:05:48.908Z,98422.57
2018-06-15T14:08:01.354Z,98429.24
2018-06-15T14:10:13.719Z,98426.77
2018-06-15T14:12:26.097Z,98429.65
2018-06-15T14:14:38.473Z,98423.03
2018-06-15T14:16:50.958Z,98427.53
2018-06-15T14:19:03.345Z,98427.95
2018-06-15T14:21:15.778Z,98423.16
2018-06-15T14:23:28.167Z,98430.09
2018-06-15T14:25:40.621Z,98422.33
2018-06-15T14:27:53.110Z,98426.47
2018-06-15T14:30:05.552Z,98421.19
2018-06-15T14:32:17.967Z,98420.05
2018-06-15T14:34:30.362Z,98421.70
2018-06-15T14:36:42.823Z,98417.22
2018-06-15T14:38:55.257Z,98416.91
2018-06-15T14:41:07.815Z,98420.73
2018-06-15T14:43:20.260Z,98419.75
2018-06-15T14:45:32.668Z,98413.78
2018-06-15T14:47:45.044Z,98413.56
2018-06-15T14:49:57.523Z,98410.55
2018-06-15T14:52:09.963Z,98411.05
2018-06-15T14:54:22.448Z,98408.34
2018-06-15T14:56:34.814Z,98408.28
2018-06-15T14:58:47.304Z,98404.95
2018-06-15T15:00:59.770Z,98407.70
2018-06-15T15:03:12.430Z,98407.86
2018-06-15T15:05:24.943Z,98401.88
2018-06-15T15:07:37.303Z,98407.20
2018-06-15T15:09:49.692Z,98402.67
2018-06-15T15:12:02.096Z,98396.83
2018-06-15T15:14:14.658Z,98393.04
2018-06-15T15:16:27.022Z,98396.55
2018-06-15T15:18:39.374Z,98394.02
2018-06-15T15:20:51.727Z,98389.56
2018-06-15T15:23:04.210Z,98386.53
2018-06-15T15:25:16.614Z,98383.18
2018-06-15T15:27:28.986Z,98387.41
2018-06-15T15:29:41.388Z,98383.72
2018-06-15T15:31:53.836Z,98381.06
2018-06-15T15:34:06.349Z,98380.68
2018-06-15T15:36:19.024Z,98378.81
2018-06-15T15:38:31.487Z,98376.13
2018-06-15T15:40:43.851Z,98381.05
2018-06-15T15:42:56.335Z,98373.20
2018-06-15T15:45:08.808Z,98367.77
2018-06-15T15:47:21.158Z,98369.64
2018-06-15T15:49:33.593Z,98366.98
2018-06-15T15:51:45.921Z,98371.94
2018-06-15T15:53:58.758Z,98370.34
2018-06-15T15:56:11.147Z,98369.48
2018-06-15T15:58:23.474Z,98368.41
2018-06-15T16:00:35.908Z,98369.90
2018-06-15T16:02:48.349Z,98363.98
2018-06-15T16:05:00.763Z,98370.16
2018-06-15T16:07:13.252Z,98371.48
2018-06-15T16:09:25.728Z,98372.68
2018-06-15T16:11:38.147Z,98375.49
2018-06-15T16:13:50.586Z,98367.08
2018-06-15T16:16:02.922Z,98371.73
2018-06-15T16:18:15.418Z,98370.55
2018-06-15T16:20:27.870Z,98366.07
2018-06-15T16:22:40.208Z,98368.25
2018-06-15T16:24:52.630Z,98367.14
2018-06-15T16:27:05.039Z,98369.13
2018-06-15T16:29:17.430Z,98370.80
2018-06-15T16:31:29.879Z,98368.80
2018-06-15T16:33:42.290Z,98372.45
2018-06-15T16:35:54.761Z,98371.30
2018-06-15T16:38:07.252Z,98362.87
2018-06-15T16:40:20.084Z,98369.33
2018-06-15T16:42:32.494Z,98367.52
2018-06-15T16:44:45.167Z,98374.66
2018-06-15T16:46:57.533Z,98371.37
2018-06-15T16:49:09.933Z,98372.00
2018-06-15T16:51:22.350Z,98371.66
2018-06-15T16:53:34.765Z,98375.46
2018-06-15T16:55:47.173Z,98375.48
2018-06-15T16:57:59.679Z,98373.02
2018-06-15T17:00:12.126Z,98371.98
2018-06-15T17:02:24.547Z,98376.33
2018-06-15T17:04:36.954Z,98373.81
2018-06-15T17:06:49.579Z,98372.48
2018-06-15T17:09:02.206Z,98373.91
2018-06-15T17:11:14.778Z,98373.88
2018-06-15T17:13:27.261Z,98375.19
2018-06-15T17:15:39.711Z,98371.70
2018-06-15T17:17:52.142Z,98371.69
2018-06-15T17:20:04.765Z,98375.16
2018-06-15T17:22:17.195Z,98373.49
2018-06-15T17:24:29.461Z,98373.83
2018-06-15T17:26:41.971Z,98374.68
2018-06-15T17:28:54.384Z,98374.17
2018-06-15T17:31:06.768Z,98374.36
2018-06-15T17:33:19.337Z,98381.19
2018-06-15T17:35:31.763Z,98375.59
2018-06-15T17:37:44.244Z,98377.59
2018-06-15T17:39:56.614Z,98381.91
2018-06-15T17:42:09.072Z,98386.20
2018-06-15T17:44:21.643Z,98383.05
2018-06-15T17:46:34.329Z,98387.56
2018-06-15T17:48:46.745Z,98392.08
2018-06-15T17:50:59.192Z,98388.92
2018-06-15T17:53:11.564Z,98385.94
2018-06-15T17:55:24.027Z,98393.08
2018-06-15T17:57:36.586Z,98389.27
2018-06-15T17:59:49.235Z,98391.89
2018-06-15T18:02:01.973Z,98388.61
2018-06-15T18:04:14.586Z,98394.89
2018-06-15T18:06:27.007Z,98396.41
2018-06-15T18:08:39.639Z,98396.23
2018-06-15T18:10:52.156Z,98391.77
2018-06-15T18:13:04.569Z,98396.75
2018-06-15T18:15:17.007Z,98403.84
2018-06-15T18:17:29.394Z,98399.87
2018-06-15T18:19:41.777Z,98404.53
2018-06-15T18:21:54.218Z,98400.56
2018-06-15T18:24:06.642Z,98400.72
2018-06-15T18:26:19.287Z,98402.36
2018-06-15T18:28:31.658Z,98398.75
2018-06-15T18:30:44.455Z,98405.37
2018-06-15T18:32:56.979Z,98404.38
2018-06-15T18:35:09.325Z,98409.17
2018-06-15T18:37:21.714Z,98406.84
2018-06-15T18:39:34.210Z,98407.00
2018-06-15T18:41:46.555Z,98408.83
2018-06-15T18:43:58.874Z,98403.53
2018-06-15T18:46:11.469Z,98411.80
2018-06-15T18:48:23.908Z,98412.41
2018-06-15T18:50:36.463Z,98417.70
2018-06-15T18:52:48.886Z,98415.36
2018-06-15T18:55:01.258Z,98409.06
2018-06-15T18:57:13.632Z,98410.34
2018-06-15T18:59:26.033Z,98409.83
2018-06-15T19:01:38.427Z,98412.96
2018-06-15T19:03:50.890Z,98417.23
2018-06-15T19:06:03.359Z,98414.89
2018-06-15T19:08:15.800Z,98413.45
2018-06-15T19:10:28.155Z,98418.30
2018-06-15T19:12:40.644Z,98420.20
2018-06-15T19:14:53.199Z,98423.55
2018-06-15T19:17:05.755Z,98423.28
2018-06-15T19:19:18.122Z,98423.94
2018-06-15T19:21:30.497Z,98427.28
2018-06-15T19:23:42.859Z,98424.47
2018-06-15T19:25:55.207Z,98424.04
2018-06-15T19:28:07.737Z,98437.81
2018-06-15T19:30:20.121Z,98428.34
2018-06-15T19:32:32.698Z,98431.19
2018-06-15T19:34:45.211Z,98431.00
2018-06-15T19:36:57.490Z,98435.61
2018-06-15T19:39:10.297Z,98435.00
2018-06-15T19:41:22.947Z,98439.00
2018-06-15T19:43:35.323Z,98434.61
2018-06-15T19:45:47.789Z,98441.54
2018-06-15T19:48:00.158Z,98444.94
2018-06-15T19:50:12.593Z,98447.09
2018-06-15T19:52:25.053Z,98439.03
2018-06-15T19:54:37.470Z,98439.86
2018-06-15T19:56:50.255Z,98441.13
2018-06-15T19:59:02.648Z,98442.53
2018-06-15T20:01:15.091Z,98442.05
2018-06-15T20:03:27.489Z,98446.42
2018-06-15T20:05:39.943Z,98442.12
2018-06-15T20:07:52.382Z,98443.31
2018-06-15T20:10:04.779Z,98435.73
2018-06-15T20:12:17.185Z,98441.54
2018-06-15T20:14:29.633Z,98445.23
2018-06-15T20:16:41.984Z,98453.28
2018-06-15T20:18:54.390Z,98452.16
2018-06-15T20:21:06.830Z,98453.30
2018-06-15T20:23:19.313Z,98449.89
2018-06-15T20:25:31.627Z,98453.91
2018-06-15T20:27:44.171Z,98455.41
2018-06-15T20:29:56.521Z,98461.30
2018-06-15T20:32:08.925Z,98462.94
2018-06-15T20:34:21.407Z,98461.92
2018-06-15T20:36:33.762Z,98459.85
2018-06-15T20:38:46.189Z,98461.30
2018-06-15T20:40:58.618Z,98467.89
2018-06-15T20:43:11.447Z,98468.59
2018-06-15T20:45:23.747Z,98470.42
2018-06-15T20:47:36.105Z,98467.89
2018-06-15T20:49:48.463Z,98469.33
2018-06-15T20:52:00.865Z,98472.02
2018-06-15T20:54:13.242Z,98469.27
2018-06-15T20:56:25.642Z,98466.42
2018-06-15T20:58:38.134Z,98463.57
2018-06-15T21:00:50.521Z,98461.78
2018-06-15T21:03:03.006Z,98459.15
2018-06-15T21:05:15.507Z,98462.48
2018-06-15T21:07:27.893Z,98458.76
2018-06-15T21:09:40.459Z,98467.60
2018-06-15T21:11:52.823Z,98469.69
2018-06-15T21:14:05.325Z,98469.13
2018-06-15T21:16:17.730Z,98465.95
2018-06-15T21:18:30.104Z,98470.37
2018-06-15T21:20:42.518Z,98471.75
2018-06-15T21:22:54.960Z,98476.89
2018-06-15T21:25:07.880Z,98475.57
2018-06-15T21:27:20.422Z,98470.16
2018-06-15T21:29:32.807Z,98471.19
2018-06-15T21:31:45.269Z,98471.84
2018-06-15T21:33:57.642Z,98470.37
2018-06-15T21:36:10.149Z,98469.60
2018-06-15T21:38:22.498Z,98462.98
2018-06-15T21:40:34.891Z,98474.91
2018-06-15T21:42:47.303Z,98468.92
2018-06-15T21:44:59.715Z,98467.11
2018-06-15T21:47:12.332Z,98467.72
2018-06-15T21:49:25.573Z,98465.90
2018-06-15T21:51:37.955Z,98470.35
2018-06-15T21:53:50.324Z,98472.06
2018-06-15T21:56:02.726Z,98473.41
2018-06-15T21:58:15.170Z,98470.22
2018-06-15T22:00:27.664Z,98472.98
2018-06-15T22:02:40.012Z,98473.77
2018-06-15T22:04:52.510Z,98469.36
2018-06-15T22:07:04.823Z,98472.86
2018-06-15T22:09:17.177Z,98472.67
2018-06-15T22:11:29.639Z,98472.70
2018-06-15T22:13:42.035Z,98474.44
2018-06-15T22:15:54.393Z,98475.77
2018-06-15T22:18:06.865Z,98476.18
2018-06-15T22:20:19.259Z,98478.22
2018-06-15T22:22:31.690Z,98470.48
2018-06-15T22:24:44.088Z,98473.36
2018-06-15T22:26:56.529Z,98474.80
2018-06-15T22:29:08.914Z,98479.41
2018-06-15T22:31:21.326Z,98475.86
2018-06-15T22:33:33.705Z,98489.57
2018-06-15T22:35:46.124Z,98483.52
2018-06-15T22:37:58.503Z,98481.84
2018-06-15T22:40:10.803Z,98477.31
2018-06-15T22:42:23.347Z,98480.42
2018-06-15T22:44:35.713Z,98484.45
2018-06-15T22:46:48.254Z,98484.81
2018-06-15T22:49:00.615Z,98485.19
2018-06-15T22:51:12.969Z,98482.89
2018-06-15T22:53:25.234Z,98485.99
2018-06-15T22:55:37.685Z,98490.41
2018-06-15T22:57:50.085Z,98483.03
2018-06-15T23:00:02.546Z,98485.64
2018-06-15T23:02:14.949Z,98488.14
2018-06-15T23:04:27.343Z,98484.81
2018-06-15T23:06:39.761Z,98483.96
2018-06-15T23:08:52.199Z,98484.54
2018-06-15T23:11:04.620Z,98482.89
2018-06-15T23:13:17.058Z,98484.05
2018-06-15T23:15:29.387Z,98481.66
2018-06-15T23:17:41.810Z,98477.61
2018-06-15T23:19:54.106Z,98478.03
2018-06-15T23:22:06.600Z,98468.52
2018-06-15T23:24:18.982Z,98468.75
2018-06-15T23:26:31.560Z,98471.14
2018-06-15T23:28:43.974Z,98467.56
2018-06-15T23:30:56.601Z,98472.92
2018-06-15T23:33:08.918Z,98472.55
2018-06-15T23:35:21.401Z,98476.34
2018-06-15T23:37:33.778Z,98470.03
2018-06-15T23:39:46.152Z,98467.03
2018-06-15T23:41:58.496Z,98471.21
2018-06-15T23:44:10.829Z,98469.30
2018-06-15T23:46:23.150Z,98465.98
2018-06-15T23:48:35.473Z,98461.45
2018-06-15T23:50:47.833Z,98463.71
2018-06-15T23:53:00.207Z,98460.27
2018-06-15T23:55:12.714Z,98467.41
2018-06-15T23:57:25.054Z,98467.64
2018-06-15T23:59:37.568Z,98460.27
